PASY METAR and TAF weather

Enter ICAO airport designator
Station Type Date Time Source
PASY METAR 2024/04/23 03:59 UTC NOAA

PASY 230359Z AUTO 32028G38KT 1 7/8SM -UP BR M 03/03 A2878 RMK AO2 UPB59 SLP750 FZRANO $


Station Type Date Time Source
PASY Decoded METAR 2024/04/23 03:59 UTC NOAA

SHEMYA EARECKSON AS, AK, United States (PASY) 52-43N 174-07E
Apr 22, 2024 - 11:59 PM EDT / 2024.04.23 0359 UTC
Wind: from the NW (320 degrees) at 32 MPH (28 KT) gusting to 44 MPH (38 KT):0
Visibility: 1 7/8 mile(s):0
Weather: light precipitation; mist
Temperature: 37 F (3 C)
Dew Point: 37 F (3 C)
Relative Humidity: 100%
Pressure (altimeter): 28.78 in. Hg (974 hPa)
ob: PASY 230359Z AUTO 32028G38KT 1 7/8SM -UP BR M 03/03 A2878 RMK AO2 UPB59 SLP750 FZRANO
cycle: 4

Station Type Date Time Source
PASY TAF 2024/04/22 22:18 UTC NOAA